Time,TemperatureF,DewpointF,PressureIn,WindDirection,WindDirectionDegrees,WindSpeedMPH,WindSpeedGustMPH,Humidity,HourlyPrecipIn,Conditions,Clouds,dailyrainin,SoftwareType,DateUTC
2013-09-20 00:24:00,62.0,52.0,30.12,SSW,213,0.0,-999.0,71,-99.99,,,-99.99,,2013-09-20 04:24:00,
2013-09-20 00:53:00,61.0,52.0,30.12,SSW,213,0.0,-999.0,73,-99.99,,,-99.99,,2013-09-20 04:53:00,
2013-09-20 01:23:00,60.0,52.0,30.12,SSW,213,1.0,-999.0,76,-99.99,,,-99.99,,2013-09-20 05:23:00,
2013-09-20 01:53:00,60.0,53.0,30.12,SSW,213,2.0,-999.0,77,-99.99,,,-99.99,,2013-09-20 05:53:00,
2013-09-20 02:12:00,59.0,52.0,30.12,SSW,213,0.0,-999.0,78,-99.99,,,-99.99,,2013-09-20 06:12:00,
2013-09-20 02:22:00,59.0,52.0,30.12,SSW,213,2.0,-999.0,78,-99.99,,,-99.99,,2013-09-20 06:22:00,
2013-09-20 02:52:00,58.0,52.0,30.12,SSW,213,3.0,-999.0,80,-99.99,,,-99.99,,2013-09-20 06:52:00,
2013-09-20 03:12:00,58.0,52.0,30.12,SSW,213,0.0,-999.0,79,-99.99,,,-99.99,,2013-09-20 07:12:00,
2013-09-20 03:23:00,59.0,52.0,30.13,SSW,213,3.0,-999.0,79,-99.99,,,-99.99,,2013-09-20 07:23:00,
2013-09-20 03:53:00,58.0,51.0,30.12,SSW,213,2.0,-999.0,78,-99.99,,,-99.99,,2013-09-20 07:53:00,
2013-09-20 04:11:00,58.0,51.0,30.12,SSW,213,0.0,-999.0,78,-99.99,,,-99.99,,2013-09-20 08:11:00,
2013-09-20 04:22:00,58.0,52.0,30.12,SSW,213,4.0,-999.0,79,-99.99,,,-99.99,,2013-09-20 08:22:00,
2013-09-20 04:52:00,58.0,52.0,30.12,SSW,213,0.0,-999.0,81,-99.99,,,-99.99,,2013-09-20 08:52:00,
2013-09-20 05:22:00,57.0,52.0,30.12,SSW,213,0.0,-999.0,82,-99.99,,,-99.99,,2013-09-20 09:22:00,
2013-09-20 05:53:00,57.0,52.0,30.12,SSW,213,0.0,-999.0,83,-99.99,,,-99.99,,2013-09-20 09:53:00,
2013-09-20 06:23:00,56.0,51.0,30.12,SSW,213,0.0,-999.0,83,-99.99,,,-99.99,,2013-09-20 10:23:00,
2013-09-20 06:53:00,56.0,51.0,30.13,SSW,213,1.0,-999.0,83,-99.99,,,-99.99,,2013-09-20 10:53:00,
2013-09-20 07:23:00,56.0,51.0,30.13,SSW,213,0.0,-999.0,84,-99.99,,,-99.99,,2013-09-20 11:23:00,
2013-09-20 07:52:00,57.0,52.0,30.13,SSW,213,3.0,-999.0,83,-99.99,,,-99.99,,2013-09-20 11:52:00,
2013-09-20 08:12:00,58.0,53.0,30.12,SSW,213,0.0,-999.0,82,-99.99,,,-99.99,,2013-09-20 12:12:00,
2013-09-20 08:22:00,59.0,53.0,30.12,SSW,213,0.0,-999.0,81,-99.99,,,-99.99,,2013-09-20 12:22:00,
2013-09-20 08:52:00,61.0,54.0,30.12,SSW,213,2.0,-999.0,78,-99.99,,,-99.99,,2013-09-20 12:52:00,
2013-09-20 09:22:00,63.0,55.0,30.13,SSW,213,2.0,-999.0,74,-99.99,,,-99.99,,2013-09-20 13:22:00,
2013-09-20 09:52:00,66.0,56.0,30.13,SSW,213,3.0,-999.0,69,-99.99,,,-99.99,,2013-09-20 13:52:00,
2013-09-20 10:21:00,68.0,55.0,30.12,SSW,213,0.0,-999.0,64,-99.99,,,-99.99,,2013-09-20 14:21:00,
2013-09-20 10:52:00,71.0,56.0,30.13,SSW,213,1.0,-999.0,59,-99.99,,,-99.99,,2013-09-20 14:52:00,
2013-09-20 11:12:00,72.0,56.0,30.13,SSW,213,1.0,-999.0,57,-99.99,,,-99.99,,2013-09-20 15:12:00,
2013-09-20 11:22:00,73.0,56.0,30.12,SSW,212,4.0,-999.0,56,-99.99,,,-99.99,,2013-09-20 15:22:00,
2013-09-20 11:54:00,74.0,56.0,30.11,SSW,209,2.0,-999.0,53,-99.99,,,-99.99,,2013-09-20 15:54:00,
2013-09-20 12:23:00,75.0,55.0,30.10,South,180,4.0,-999.0,49,-99.99,,,-99.99,,2013-09-20 16:23:00,
2013-09-20 12:53:00,76.0,54.0,30.09,SSE,163,6.0,-999.0,46,-99.99,,,-99.99,,2013-09-20 16:53:00,
2013-09-20 13:24:00,77.0,53.0,30.09,SSE,159,6.0,-999.0,43,-99.99,,,-99.99,,2013-09-20 17:24:00,
2013-09-20 13:53:00,77.0,53.0,30.08,ESE,113,2.0,-999.0,44,-99.99,,,-99.99,,2013-09-20 17:53:00,
2013-09-20 14:22:00,78.0,54.0,30.07,South,172,2.0,-999.0,43,-99.99,,,-99.99,,2013-09-20 18:22:00,
2013-09-20 14:52:00,77.0,51.0,30.05,SE,125,4.0,-999.0,41,-99.99,,,-99.99,,2013-09-20 18:52:00,
2013-09-20 15:12:00,77.0,53.0,30.05,SSE,155,5.0,-999.0,44,-99.99,,,-99.99,,2013-09-20 19:12:00,
2013-09-20 15:22:00,78.0,54.0,30.05,SSE,166,5.0,-999.0,44,-99.99,,,-99.99,,2013-09-20 19:22:00,
2013-09-20 15:52:00,78.0,54.0,30.05,SSE,153,0.0,-999.0,43,-99.99,,,-99.99,,2013-09-20 19:52:00,
2013-09-20 16:22:00,77.0,54.0,30.04,SE,136,3.0,-999.0,45,-99.99,,,-99.99,,2013-09-20 20:22:00,
2013-09-20 16:52:00,75.0,53.0,30.03,South,178,9.0,-999.0,47,-99.99,,,-99.99,,2013-09-20 20:52:00,
2013-09-20 17:22:00,75.0,53.0,30.04,SSE,158,4.0,-999.0,47,-99.99,,,-99.99,,2013-09-20 21:22:00,
2013-09-20 17:54:00,74.0,53.0,30.04,SE,124,5.0,-999.0,48,-99.99,,,-99.99,,2013-09-20 21:54:00,
2013-09-20 18:14:00,73.0,53.0,30.04,SE,127,5.0,-999.0,49,-99.99,,,-99.99,,2013-09-20 22:14:00,
2013-09-20 18:24:00,73.0,53.0,30.04,ESE,117,8.0,-999.0,50,-99.99,,,-99.99,,2013-09-20 22:24:00,
2013-09-20 18:53:00,72.0,54.0,30.04,SE,132,3.0,-999.0,53,-99.99,,,-99.99,,2013-09-20 22:53:00,
2013-09-20 19:13:00,71.0,54.0,30.03,SE,125,5.0,-999.0,55,-99.99,,,-99.99,,2013-09-20 23:13:00,
2013-09-20 19:22:00,71.0,54.0,30.03,SSE,161,3.0,-999.0,56,-99.99,,,-99.99,,2013-09-20 23:22:00,
2013-09-20 19:53:00,70.0,54.0,30.03,SE,141,0.0,-999.0,57,-99.99,,,-99.99,,2013-09-20 23:53:00,
2013-09-20 20:11:00,69.0,54.0,30.03,SE,144,2.0,-999.0,59,-99.99,,,-99.99,,2013-09-21 00:11:00,
2013-09-20 20:22:00,69.0,55.0,30.03,SE,146,3.0,-999.0,60,-99.99,,,-99.99,,2013-09-21 00:22:00,
2013-09-20 20:42:00,69.0,55.0,30.04,SSE,150,0.0,-999.0,62,-99.99,,,-99.99,,2013-09-21 00:42:00,
2013-09-20 20:52:00,68.0,54.0,30.03,SSE,150,0.0,-999.0,62,-99.99,,,-99.99,,2013-09-21 00:52:00,
2013-09-20 21:12:00,68.0,54.0,30.04,SSE,150,0.0,-999.0,62,-99.99,,,-99.99,,2013-09-21 01:12:00,
2013-09-20 21:22:00,68.0,55.0,30.04,SSE,150,0.0,-999.0,63,-99.99,,,-99.99,,2013-09-21 01:22:00,
2013-09-20 21:52:00,68.0,55.0,30.05,South,172,0.0,-999.0,63,-99.99,,,-99.99,,2013-09-21 01:52:00,
2013-09-20 22:12:00,67.0,54.0,30.05,SSW,192,0.0,-999.0,64,-99.99,,,-99.99,,2013-09-21 02:12:00,
2013-09-20 22:22:00,67.0,54.0,30.05,South,189,0.0,-999.0,64,-99.99,,,-99.99,,2013-09-21 02:22:00,
2013-09-20 22:42:00,66.0,54.0,30.05,South,189,0.0,-999.0,66,-99.99,,,-99.99,,2013-09-21 02:42:00,
2013-09-20 22:52:00,66.0,54.0,30.05,South,189,0.0,-999.0,66,-99.99,,,-99.99,,2013-09-21 02:52:00,
2013-09-20 23:22:00,66.0,55.0,30.05,South,189,0.0,-999.0,67,-99.99,,,-99.99,,2013-09-21 03:22:00,
2013-09-20 23:54:00,66.0,55.0,30.05,South,179,1.0,-999.0,68,-99.99,,,-99.99,,2013-09-21 03:54:00,